Time;durP1;ratioP1;P1;durP2;ratioP2;P2;SDS_P1;SDS_P2;PMS_P1;PMS_P2;Temp;Humidity;BMP_temperature;BMP_pressure;BME280_temperature;BME280_humidity;BME280_pressure;Samples;Min_cycle;Max_cycle;Signal;HPM_P1;HPM_P2
2023/02/23 00:01:14;;;;;;;;;;;;;;;22.26;23.72;97952.84;5077945;28;806;-79
2023/02/23 00:03:40;;;;;;;;;;;;;;;22.17;23.95;97949.88;5057388;28;1323;-80
2023/02/23 00:06:06;;;;;;;;;;;;;;;22.05;23.93;97957.06;5057405;28;1040;-80
2023/02/23 00:08:34;;;;;;;;;;;;;;;21.90;24.59;97953.06;5040525;28;1110;-80
2023/02/23 00:11:04;;;;;;;;;;;;;;;21.92;24.57;97946.97;5057354;28;1998;-80
2023/02/23 00:13:31;;;;;;;;;;;;;;;21.99;24.35;97943.91;5058036;28;841;-80
2023/02/23 00:15:56;;;;;;;;;;;;;;;22.04;24.26;97946.19;5059707;28;850;-80
2023/02/23 00:18:22;;;;;;;;;;;;;;;22.37;23.88;97958.19;5065287;28;1374;-80
2023/02/23 00:20:56;;;;;;;;;;;;;;;21.98;24.32;97950.84;5079667;28;887;-80
2023/02/23 00:23:22;;;;;;;;;;;;;;;21.94;24.40;97952.97;5079158;28;873;-80
2023/02/23 00:25:47;;;;;;;;;;;;;;;22.10;23.97;97952.91;5078890;28;854;-80
2023/02/23 00:28:13;;;;;;;;;;;;;;;22.14;23.95;97945.13;5079062;28;857;-80
2023/02/23 00:30:38;;;;;;;;;;;;;;;22.19;23.96;97958.75;5078075;28;1910;-80
2023/02/23 00:33:04;;;;;;;;;;;;;;;21.99;24.36;97943.91;5066648;28;1450;-80
2023/02/23 00:35:29;;;;;;;;;;;;;;;21.91;24.46;97942.53;5080012;28;1286;-80
2023/02/23 00:37:55;;;;;;;;;;;;;;;21.83;24.42;97942.75;5096829;28;893;-80
2023/02/23 00:40:22;;;;;;;;;;;;;;;22.12;24.25;97950.44;5080348;28;1247;-80
2023/02/23 00:42:49;;;;;;;;;;;;;;;22.12;24.20;97947.59;5080442;28;1102;-80
2023/02/23 00:45:15;;;;;;;;;;;;;;;22.29;23.98;97940.63;5096697;28;967;-80
2023/02/23 00:47:41;;;;;;;;;;;;;;;21.81;24.45;97936.75;5097921;28;1354;-80
2023/02/23 00:50:10;;;;;;;;;;;;;;;21.91;24.36;97939.69;5100111;28;1252;-80
2023/02/23 00:52:35;;;;;;;;;;;;;;;21.63;24.63;97927.16;5116978;28;1905;-80
2023/02/23 00:55:01;;;;;;;;;;;;;;;22.04;24.46;97934.88;5083108;28;1105;-80
2023/02/23 00:57:27;;;;;;;;;;;;;;;22.25;24.03;97939.13;5100144;28;1132;-80
2023/02/23 00:59:52;;;;;;;;;;;;;;;22.10;23.90;97933.06;5117148;28;723;-80
2023/02/23 01:02:17;;;;;;;;;;;;;;;22.01;24.31;97935.75;5102109;28;1354;-80
2023/02/23 01:04:43;;;;;;;;;;;;;;;21.76;24.41;97931.63;5059630;28;1166;-80
2023/02/23 01:07:11;;;;;;;;;;;;;;;22.03;24.10;97933.28;5043498;28;1314;-80
2023/02/23 01:09:37;;;;;;;;;;;;;;;22.19;24.02;97921.91;5036298;28;1311;-80
2023/02/23 01:12:06;;;;;;;;;;;;;;;22.25;24.19;97922.91;5052730;28;1970;-80
2023/02/23 01:14:32;;;;;;;;;;;;;;;21.83;24.60;97924.94;5036210;28;1181;-80
2023/02/23 01:16:58;;;;;;;;;;;;;;;21.80;24.57;97926.63;5071932;28;1363;-80
2023/02/23 01:19:23;;;;;;;;;;;;;;;21.81;24.43;97916.91;5039507;28;842;-80
2023/02/23 01:21:49;;;;;;;;;;;;;;;21.98;24.59;97916.84;5039217;28;948;-80
2023/02/23 01:24:16;;;;;;;;;;;;;;;22.21;24.14;97915.75;5039435;28;923;-80
2023/02/23 01:26:42;;;;;;;;;;;;;;;21.95;24.58;97910.03;5055517;28;1204;-80
2023/02/23 01:29:11;;;;;;;;;;;;;;;21.96;24.57;97905.16;5041087;28;1328;-80
2023/02/23 01:31:37;;;;;;;;;;;;;;;21.68;24.78;97913.22;5059268;28;1983;-80
2023/02/23 01:34:03;;;;;;;;;;;;;;;21.83;24.61;97902.28;5058892;28;862;-80
2023/02/23 01:36:31;;;;;;;;;;;;;;;22.27;24.13;97906.25;5039493;28;1258;-80
2023/02/23 01:38:58;;;;;;;;;;;;;;;22.21;24.01;97899.56;5052146;28;1291;-80
2023/02/23 01:41:25;;;;;;;;;;;;;;;21.87;24.39;97900.16;5035268;28;846;-80
2023/02/23 01:43:55;;;;;;;;;;;;;;;21.86;24.71;97895.72;5034878;28;1445;-80
2023/02/23 01:46:20;;;;;;;;;;;;;;;21.88;24.60;97898.13;5019408;28;1507;-80
2023/02/23 01:48:47;;;;;;;;;;;;;;;22.12;24.11;97899.41;5035286;28;1030;-80
2023/02/23 01:51:13;;;;;;;;;;;;;;;22.16;24.10;97917.13;5035218;28;1983;-80
2023/02/23 01:53:40;;;;;;;;;;;;;;;22.08;24.17;97919.34;5035462;28;1253;-80
2023/02/23 01:56:10;;;;;;;;;;;;;;;22.06;24.21;97921.03;5052215;28;794;-80
2023/02/23 01:58:40;;;;;;;;;;;;;;;21.76;24.83;97920.28;5052548;28;1455;-80
2023/02/23 02:01:05;;;;;;;;;;;;;;;21.88;24.62;97915.13;5022170;28;1229;-80
2023/02/23 02:03:35;;;;;;;;;;;;;;;22.41;24.07;97919.19;5022347;28;1214;-80
2023/02/23 02:06:01;;;;;;;;;;;;;;;22.21;24.29;97918.59;5022340;28;1351;-80
2023/02/23 02:08:27;;;;;;;;;;;;;;;21.94;24.42;97918.97;5054239;28;1249;-80
2023/02/23 02:10:56;;;;;;;;;;;;;;;21.68;24.98;97926.59;5072773;28;1914;-80
2023/02/23 02:13:28;;;;;;;;;;;;;;;21.82;24.48;97929.03;5071466;28;1236;-80
2023/02/23 02:16:06;;;;;;;;;;;;;;;22.19;24.11;97924.72;5089607;28;921;-80
2023/02/23 02:18:50;;;;;;;;;;;;;;;22.25;24.09;97928.59;5055761;28;1311;-80
2023/02/23 02:21:16;;;;;;;;;;;;;;;21.83;24.59;97937.06;5054811;28;1231;-80
2023/02/23 02:23:51;;;;;;;;;;;;;;;21.94;24.48;97936.75;5054624;28;983;-80
2023/02/23 02:26:32;;;;;;;;;;;;;;;22.01;24.58;97935.75;5034058;28;1518;-80
2023/02/23 02:29:07;;;;;;;;;;;;;;;22.18;24.27;97934.47;5018367;28;1105;-80
2023/02/23 02:31:36;;;;;;;;;;;;;;;22.17;24.38;97937.75;5017973;28;1987;-80
2023/02/23 02:34:07;;;;;;;;;;;;;;;22.02;24.30;97937.34;5018273;28;1050;-80
2023/02/23 02:36:46;;;;;;;;;;;;;;;21.91;24.71;97942.53;5018277;28;1169;-80
2023/02/23 02:39:35;;;;;;;;;;;;;;;21.87;24.79;97942.66;5034423;28;739;-80
2023/02/23 02:42:20;;;;;;;;;;;;;;;22.04;24.33;97940.53;5014100;28;1518;-80
2023/02/23 02:45:06;;;;;;;;;;;;;;;22.02;24.46;97943.81;4998462;28;1005;-80
2023/02/23 02:47:31;;;;;;;;;;;;;;;21.78;24.80;97943.28;5014815;28;1288;-80
2023/02/23 02:50:01;;;;;;;;;;;;;;;21.99;24.42;97949.59;5014759;28;1154;-80
2023/02/23 02:52:30;;;;;;;;;;;;;;;21.88;24.60;97954.78;4982275;28;1917;-80
2023/02/23 02:54:57;;;;;;;;;;;;;;;21.94;24.93;97947.31;4997737;28;1334;-80
2023/02/23 02:57:24;;;;;;;;;;;;;;;22.31;23.99;97943.78;5014645;28;1152;-80
2023/02/23 04:19:51;;;;;;;;;;;;;;;21.93;24.54;97996.72;5073787;28;912;-80
2023/02/23 04:22:17;;;;;;;;;;;;;;;22.21;24.60;98004.41;5056959;28;898;-80
2023/02/23 04:24:42;;;;;;;;;;;;;;;22.38;24.02;98010.00;5073616;28;903;-80
2023/02/23 04:27:08;;;;;;;;;;;;;;;22.17;24.46;98006.56;5056775;28;897;-80
2023/02/23 04:29:33;;;;;;;;;;;;;;;22.07;24.49;97996.28;5082363;28;1379;-80
2023/02/23 04:31:59;;;;;;;;;;;;;;;21.63;24.96;98004.38;5076828;28;1906;-80
2023/02/23 04:34:24;;;;;;;;;;;;;;;21.92;24.90;98007.25;5060138;28;897;-80
2023/02/23 04:36:50;;;;;;;;;;;;;;;21.97;24.95;98009.53;5060192;28;1226;-80
2023/02/23 04:39:16;;;;;;;;;;;;;;;22.27;24.52;98011.13;5076772;28;984;-80
2023/02/23 04:41:41;;;;;;;;;;;;;;;21.96;24.83;98012.81;5043350;28;1288;-80
2023/02/23 04:44:06;;;;;;;;;;;;;;;22.05;24.76;98015.78;5054979;28;1433;-80
2023/02/23 04:46:32;;;;;;;;;;;;;;;22.10;24.42;98012.41;5053627;28;1620;-79
2023/02/23 04:48:58;;;;;;;;;;;;;;;22.25;24.47;98007.94;5056138;28;1516;-80
2023/02/23 04:51:23;;;;;;;;;;;;;;;22.48;23.99;98011.72;5071184;28;1906;-80
2023/02/23 04:53:49;;;;;;;;;;;;;;;22.44;24.17;98011.06;5043306;28;926;-80
2023/02/23 04:56:14;;;;;;;;;;;;;;;21.88;24.64;98008.59;5059651;28;949;-80
2023/02/23 04:58:41;;;;;;;;;;;;;;;22.16;24.44;98015.50;5060112;28;925;-80
2023/02/23 05:01:06;;;;;;;;;;;;;;;22.05;24.34;98015.78;5076416;28;858;-80
2023/02/23 05:03:32;;;;;;;;;;;;;;;22.25;24.38;98022.13;5059359;28;886;-80
2023/02/23 05:05:57;;;;;;;;;;;;;;;22.12;24.33;98021.28;5075974;28;1075;-80
2023/02/23 05:08:23;;;;;;;;;;;;;;;22.47;24.19;98030.78;5075987;28;798;-80
2023/02/23 05:10:48;;;;;;;;;;;;;;;21.92;24.63;98029.13;5075648;28;1930;-80
2023/02/23 05:13:15;;;;;;;;;;;;;;;21.88;24.64;98022.75;5075299;28;1056;-80
2023/02/23 05:15:40;;;;;;;;;;;;;;;21.79;24.83;98029.84;5075626;28;916;-80
2023/02/23 05:18:06;;;;;;;;;;;;;;;22.02;24.87;98034.50;5076997;28;869;-80
2023/02/23 05:20:32;;;;;;;;;;;;;;;22.30;24.48;98034.94;5076638;28;1122;-80
2023/02/23 05:22:58;;;;;;;;;;;;;;;22.49;24.03;98044.53;5077880;28;754;-80
2023/02/23 05:25:24;;;;;;;;;;;;;;;22.03;24.43;98041.75;5060000;28;1125;-80
2023/02/23 05:27:49;;;;;;;;;;;;;;;21.75;24.82;98043.28;5077570;28;802;-80
2023/02/23 05:30:15;;;;;;;;;;;;;;;21.75;25.10;98043.28;5076692;28;863;-80
2023/02/23 05:32:40;;;;;;;;;;;;;;;22.22;24.55;98059.84;5076171;28;1984;-80
2023/02/23 05:35:06;;;;;;;;;;;;;;;22.34;24.06;98064.78;5075611;28;774;-80
2023/02/23 05:37:32;;;;;;;;;;;;;;;21.98;24.83;98069.81;5058434;28;941;-80
2023/02/23 05:39:58;;;;;;;;;;;;;;;21.89;24.78;98075.31;5077606;28;731;-80
2023/02/23 05:42:23;;;;;;;;;;;;;;;21.65;25.09;98075.53;5077807;28;735;-80
2023/02/23 05:44:49;;;;;;;;;;;;;;;22.15;24.55;98071.41;5078117;28;833;-80
2023/02/23 05:47:14;;;;;;;;;;;;;;;21.98;24.88;98073.44;5074720;28;1115;-80
2023/02/23 05:49:39;;;;;;;;;;;;;;;22.18;24.39;98073.34;5041686;28;1350;-81
2023/02/23 05:52:05;;;;;;;;;;;;;;;22.16;24.58;98084.31;5074960;28;1914;-81
2023/02/23 05:54:30;;;;;;;;;;;;;;;21.93;24.90;98090.19;5075021;28;845;-80
2023/02/23 05:56:56;;;;;;;;;;;;;;;21.78;25.05;98082.06;5075662;28;950;-80
2023/02/23 05:59:21;;;;;;;;;;;;;;;22.29;24.24;98088.00;5074611;28;896;-80
2023/02/23 06:01:47;;;;;;;;;;;;;;;22.27;24.58;98090.47;5058499;28;1029;-80
2023/02/23 06:04:13;;;;;;;;;;;;;;;21.99;24.61;98096.91;5058555;28;961;-80
2023/02/23 06:06:38;;;;;;;;;;;;;;;22.10;24.72;98097.41;5034188;28;1108;-81
2023/02/23 06:09:04;;;;;;;;;;;;;;;21.86;24.87;98088.31;5034290;28;786;-80
2023/02/23 06:11:29;;;;;;;;;;;;;;;22.42;24.21;98096.56;5034694;28;1913;-81
2023/02/23 06:13:58;;;;;;;;;;;;;;;22.40;24.14;98104.72;5033857;28;860;-80
2023/02/23 06:16:24;;;;;;;;;;;;;;;22.02;24.71;98105.31;5017946;28;945;-81
2023/02/23 06:18:49;;;;;;;;;;;;;;;22.04;24.56;98110.53;5031929;28;764;-80
2023/02/23 06:21:14;;;;;;;;;;;;;;;22.09;24.75;98101.50;5054420;28;834;-80
2023/02/23 06:23:40;;;;;;;;;;;;;;;22.21;24.42;98106.44;5054372;28;720;-80
2023/02/23 06:26:07;;;;;;;;;;;;;;;22.27;24.54;98107.50;5054062;28;889;-80
2023/02/23 06:28:32;;;;;;;;;;;;;;;22.25;24.57;98115.66;5037839;28;866;-81
2023/02/23 06:30:58;;;;;;;;;;;;;;;22.05;24.67;98124.25;5004181;28;1918;-80
2023/02/23 06:33:23;;;;;;;;;;;;;;;21.91;24.66;98124.63;5036719;28;837;-80
2023/02/23 06:35:49;;;;;;;;;;;;;;;21.95;24.99;98125.31;5036933;28;1054;-81
2023/02/23 06:38:14;;;;;;;;;;;;;;;22.25;24.48;98126.19;5070279;28;770;-80
2023/02/23 06:40:40;;;;;;;;;;;;;;;22.23;24.60;98132.31;5076382;28;850;-81
2023/02/23 06:43:05;;;;;;;;;;;;;;;22.28;24.56;98134.63;5076154;28;1102;-80
2023/02/23 06:45:31;;;;;;;;;;;;;;;21.88;25.12;98138.91;5092027;28;1121;-81
2023/02/23 06:47:57;;;;;;;;;;;;;;;21.98;24.92;98144.28;5076399;28;720;-80
2023/02/23 06:50:22;;;;;;;;;;;;;;;22.09;24.90;98139.13;5076399;28;716;-80
2023/02/23 06:52:48;;;;;;;;;;;;;;;22.47;24.07;98140.56;5108724;28;1906;-80
2023/02/23 06:55:14;;;;;;;;;;;;;;;22.61;24.01;98140.19;5073904;28;1043;-80
2023/02/23 06:57:40;;;;;;;;;;;;;;;21.85;25.05;98141.34;5074716;28;1261;-81
2023/02/23 07:00:07;;;;;;;;;;;;;;;21.87;24.89;98140.94;5057675;28;1189;-80
2023/02/23 07:02:34;;;;;;;;;;;;;;;21.94;24.76;98145.63;5024307;28;969;-80
2023/02/23 07:04:59;;;;;;;;;;;;;;;22.26;24.35;98154.09;5075375;28;855;-80
2023/02/23 07:07:25;;;;;;;;;;;;;;;22.22;24.53;98153.38;5078282;28;1212;-80
2023/02/23 07:09:50;;;;;;;;;;;;;;;22.07;24.47;98152.97;5044516;28;855;-80
2023/02/23 07:12:16;;;;;;;;;;;;;;;21.82;25.08;98149.97;5061324;28;1965;-80
2023/02/23 07:14:41;;;;;;;;;;;;;;;21.91;24.88;98146.50;5078148;28;859;-80
2023/02/23 07:17:06;;;;;;;;;;;;;;;22.18;24.89;98155.53;5078319;28;898;-80
2023/02/23 07:19:32;;;;;;;;;;;;;;;22.41;24.20;98151.66;5078334;28;868;-80
2023/02/23 07:21:57;;;;;;;;;;;;;;;22.43;24.18;98148.38;5078434;28;948;-80
2023/02/23 07:24:23;;;;;;;;;;;;;;;22.05;24.83;98146.13;5044831;28;917;-80
2023/02/23 07:26:48;;;;;;;;;;;;;;;21.77;25.24;98142.78;5073905;28;857;-81
2023/02/23 07:29:14;;;;;;;;;;;;;;;21.76;25.18;98140.38;5078826;28;932;-80
2023/02/23 07:31:39;;;;;;;;;;;;;;;21.96;25.29;98148.78;5062359;28;1894;-80
2023/02/23 07:34:05;;;;;;;;;;;;;;;22.06;24.91;98153.38;5079184;28;865;-80
2023/02/23 07:36:31;;;;;;;;;;;;;;;21.90;24.99;98150.56;5062455;28;1296;-80
2023/02/23 07:38:56;;;;;;;;;;;;;;;21.96;24.91;98148.78;5080332;28;876;-80
2023/02/23 07:41:22;;;;;;;;;;;;;;;21.94;24.84;98151.28;5080390;28;763;-80
2023/02/23 07:43:47;;;;;;;;;;;;;;;22.07;24.82;98161.47;5062746;28;1149;-80
2023/02/23 07:46:14;;;;;;;;;;;;;;;22.15;25.02;98164.91;5079542;28;896;-80
2023/02/23 07:48:43;;;;;;;;;;;;;;;22.00;24.93;98163.66;5079987;28;945;-80
2023/02/23 07:51:12;;;;;;;;;;;;;;;21.96;25.41;98165.78;5062620;28;1973;-80
2023/02/23 07:53:41;;;;;;;;;;;;;;;21.71;25.03;98170.06;5078689;28;842;-80
2023/02/23 07:56:09;;;;;;;;;;;;;;;22.19;24.90;98174.13;5062852;28;1247;-80
2023/02/23 07:58:38;;;;;;;;;;;;;;;22.14;24.91;98177.50;5078215;28;864;-80
2023/02/23 08:01:04;;;;;;;;;;;;;;;22.27;24.63;98174.72;5078501;28;881;-80
2023/02/23 08:03:29;;;;;;;;;;;;;;;21.98;24.95;98177.50;5079598;28;881;-80
2023/02/23 08:05:55;;;;;;;;;;;;;;;21.97;24.89;98178.72;5079905;28;851;-80
2023/02/23 08:08:20;;;;;;;;;;;;;;;21.64;25.65;98166.59;5062044;28;1168;-80
2023/02/23 08:10:47;;;;;;;;;;;;;;;22.10;24.93;98177.59;5078402;28;1902;-80
2023/02/23 08:13:13;;;;;;;;;;;;;;;22.11;24.96;98189.72;5078242;28;843;-80
2023/02/23 08:15:38;;;;;;;;;;;;;;;22.00;24.76;98192.78;5079014;28;906;-80
2023/02/23 08:18:04;;;;;;;;;;;;;;;22.01;24.96;98190.75;5077993;28;861;-80
2023/02/23 08:20:29;;;;;;;;;;;;;;;21.75;25.19;98196.22;5077153;28;862;-80
2023/02/23 08:22:58;;;;;;;;;;;;;;;21.64;25.46;98198.53;5060517;28;1103;-81
2023/02/23 08:25:23;;;;;;;;;;;;;;;22.00;25.00;98189.97;5060131;28;797;-80
2023/02/23 08:27:52;;;;;;;;;;;;;;;22.05;25.09;98209.25;5043557;28;744;-80
2023/02/23 08:30:20;;;;;;;;;;;;;;;22.30;24.45;98203.00;5060369;28;925;-80
2023/02/23 08:32:45;;;;;;;;;;;;;;;21.90;25.24;98208.03;5043674;28;1913;-80
2023/02/23 08:35:11;;;;;;;;;;;;;;;21.90;25.21;98207.22;5060324;28;900;-80
2023/02/23 08:37:36;;;;;;;;;;;;;;;21.87;25.36;98203.25;5060217;28;1241;-80
2023/02/23 08:40:02;;;;;;;;;;;;;;;22.19;24.62;98213.81;5076860;28;1034;-80
2023/02/23 08:42:28;;;;;;;;;;;;;;;22.39;24.70;98210.88;5076348;28;842;-81
2023/02/23 08:44:53;;;;;;;;;;;;;;;21.99;24.98;98210.25;5072723;28;1114;-80
2023/02/23 08:47:22;;;;;;;;;;;;;;;22.03;24.75;98210.97;5065711;28;1248;-80
2023/02/23 08:49:53;;;;;;;;;;;;;;;21.88;25.28;98209.72;5064693;28;1336;-81
2023/02/23 08:52:18;;;;;;;;;;;;;;;21.71;25.52;98217.38;5098920;28;1913;-80
2023/02/23 08:54:44;;;;;;;;;;;;;;;22.17;24.61;98221.94;5102128;28;1223;-80
2023/02/23 08:57:10;;;;;;;;;;;;;;;22.24;24.63;98221.78;5099591;28;1266;-80
2023/02/23 08:59:36;;;;;;;;;;;;;;;22.18;24.64;98240.56;5078098;28;1224;-80
2023/02/23 09:02:02;;;;;;;;;;;;;;;22.01;24.95;98224.75;5078342;28;1217;-81
2023/02/23 09:04:29;;;;;;;;;;;;;;;22.11;24.67;98235.06;5077741;28;1221;-80
2023/02/23 09:06:55;;;;;;;;;;;;;;;21.71;25.49;98237.19;5101886;28;1223;-80
2023/02/23 09:09:20;;;;;;;;;;;;;;;22.05;24.81;98234.75;5078045;28;1196;-80
2023/02/23 09:11:46;;;;;;;;;;;;;;;22.42;24.30;98231.84;5077307;28;1979;-80
2023/02/23 09:14:11;;;;;;;;;;;;;;;22.10;24.71;98239.94;5100925;28;1319;-80
2023/02/23 09:16:37;;;;;;;;;;;;;;;22.08;24.73;98235.94;5078359;28;1228;-80
2023/02/23 09:19:02;;;;;;;;;;;;;;;21.83;24.95;98242.19;5078237;28;857;-80
2023/02/23 09:21:28;;;;;;;;;;;;;;;22.06;24.78;98249.72;5078531;28;813;-80
2023/02/23 09:23:55;;;;;;;;;;;;;;;22.24;24.59;98252.97;5076910;28;866;-80
2023/02/23 09:26:20;;;;;;;;;;;;;;;22.27;24.67;98249.22;5075693;28;1255;-80
2023/02/23 09:28:46;;;;;;;;;;;;;;;21.80;25.08;98266.53;5041628;28;1211;-80
2023/02/23 09:31:12;;;;;;;;;;;;;;;21.90;25.20;98259.00;5059277;28;1914;-80
2023/02/23 09:33:38;;;;;;;;;;;;;;;21.85;25.34;98263.16;5058742;28;1001;-80
2023/02/23 09:36:07;;;;;;;;;;;;;;;22.11;24.64;98260.56;5019349;28;1167;-80
2023/02/23 09:38:32;;;;;;;;;;;;;;;22.25;24.79;98268.72;5002684;28;1052;-80
2023/02/23 09:40:58;;;;;;;;;;;;;;;22.35;24.25;98256.31;5035872;28;821;-80
2023/02/23 09:43:26;;;;;;;;;;;;;;;21.89;24.98;98257.41;5018780;28;1173;-80
2023/02/23 09:46:12;;;;;;;;;;;;;;;21.89;24.99;98263.09;5035085;28;1420;-80
2023/02/23 09:48:37;;;;;;;;;;;;;;;22.02;24.87;98271.69;5017953;28;1245;-80
2023/02/23 09:51:03;;;;;;;;;;;;;;;22.08;24.74;98269.94;5018550;28;1918;-80
2023/02/23 09:53:32;;;;;;;;;;;;;;;22.05;24.69;98270.81;5026618;28;1306;-80
2023/02/23 09:55:57;;;;;;;;;;;;;;;21.89;25.01;98270.78;5031959;28;1210;-80
2023/02/23 09:58:24;;;;;;;;;;;;;;;22.00;24.73;98280.63;5034439;28;1258;-80
2023/02/23 10:00:55;;;;;;;;;;;;;;;21.90;25.25;98269.53;5003642;28;1278;-81
2023/02/23 10:03:23;;;;;;;;;;;;;;;22.24;24.52;98272.00;5006944;28;1312;-80
2023/02/23 10:05:53;;;;;;;;;;;;;;;22.34;24.65;98266.06;5014561;28;1304;-80
2023/02/23 10:08:21;;;;;;;;;;;;;;;22.35;24.32;98281.03;5060463;28;1189;-81
2023/02/23 10:10:48;;;;;;;;;;;;;;;21.95;25.05;98277.53;5054090;28;1894;-80
2023/02/23 10:13:32;;;;;;;;;;;;;;;22.00;24.70;98280.63;5021138;28;1328;-81
2023/02/23 10:16:17;;;;;;;;;;;;;;;21.81;25.04;98276.63;5043476;28;1283;-81
2023/02/23 10:18:49;;;;;;;;;;;;;;;22.19;24.79;98272.53;5063852;28;1218;-81
2023/02/23 10:21:20;;;;;;;;;;;;;;;22.26;24.35;98270.31;5062855;28;1426;-81
2023/02/23 10:24:02;;;;;;;;;;;;;;;22.02;24.83;98277.34;5033943;28;1305;-81
2023/02/23 10:26:31;;;;;;;;;;;;;;;22.00;24.88;98274.16;5033162;28;1234;-81
2023/02/23 10:28:57;;;;;;;;;;;;;;;21.79;25.37;98276.25;5031465;28;1192;-81
2023/02/23 10:31:25;;;;;;;;;;;;;;;22.37;24.58;98281.38;5041976;28;1887;-81
2023/02/23 10:33:51;;;;;;;;;;;;;;;22.30;24.54;98271.03;5048062;28;1273;-81
2023/02/23 10:36:20;;;;;;;;;;;;;;;22.32;24.34;98279.88;5045442;28;1238;-81
2023/02/23 10:38:45;;;;;;;;;;;;;;;22.30;24.34;98273.84;5063972;28;1232;-80
2023/02/23 10:41:11;;;;;;;;;;;;;;;22.28;24.41;98275.56;5048688;28;1293;-81
2023/02/23 10:43:36;;;;;;;;;;;;;;;22.28;24.34;98279.19;5062002;28;1289;-81
2023/02/23 10:46:03;;;;;;;;;;;;;;;21.97;24.97;98277.91;5059472;28;1209;-81
2023/02/23 10:48:31;;;;;;;;;;;;;;;22.35;24.25;98279.00;5055462;28;1339;-81
2023/02/23 10:51:01;;;;;;;;;;;;;;;22.29;24.34;98274.31;5059435;28;1988;-81
2023/02/23 10:53:36;;;;;;;;;;;;;;;21.98;24.88;98283.13;5053600;28;1272;-81
2023/02/23 10:56:04;;;;;;;;;;;;;;;21.89;24.90;98282.13;5092117;28;1239;-80
2023/02/23 10:58:29;;;;;;;;;;;;;;;21.90;25.24;98280.88;5077608;28;770;-81
2023/02/23 11:00:55;;;;;;;;;;;;;;;22.16;24.86;98277.03;5077702;28;867;-81
2023/02/23 11:03:27;;;;;;;;;;;;;;;22.24;24.69;98284.13;5077457;28;995;-81
2023/02/23 11:05:52;;;;;;;;;;;;;;;22.25;24.68;98282.88;5061429;28;954;-81
2023/02/23 11:08:25;;;;;;;;;;;;;;;22.14;24.67;98285.19;5094339;28;1313;-80
2023/02/23 11:10:57;;;;;;;;;;;;;;;21.90;24.92;98286.53;5094645;28;1980;-81
2023/02/23 11:13:25;;;;;;;;;;;;;;;21.76;25.37;98290.50;5057838;28;1184;-80
2023/02/23 11:15:57;;;;;;;;;;;;;;;22.20;24.61;98289.09;5075280;28;935;-80
2023/02/23 11:18:22;;;;;;;;;;;;;;;22.36;24.32;98286.25;5075578;28;782;-81
2023/02/23 11:20:48;;;;;;;;;;;;;;;21.93;24.74;98274.34;5075300;28;923;-81
2023/02/23 11:23:19;;;;;;;;;;;;;;;22.02;24.95;98278.16;5075009;28;1013;-81
2023/02/23 11:25:45;;;;;;;;;;;;;;;21.88;25.25;98277.69;5074904;28;762;-81
2023/02/23 11:28:36;;;;;;;;;;;;;;;21.95;25.00;98283.19;5075168;28;719;-81
2023/02/23 11:31:22;;;;;;;;;;;;;;;22.21;24.74;98278.53;5054046;28;1910;-81
2023/02/23 11:33:48;;;;;;;;;;;;;;;22.26;24.62;98273.13;5053230;28;906;-81
2023/02/23 11:36:14;;;;;;;;;;;;;;;22.06;25.01;98289.41;5037260;28;1192;-81
2023/02/23 11:38:40;;;;;;;;;;;;;;;21.77;25.04;98281.56;5037093;28;847;-81
2023/02/23 11:41:10;;;;;;;;;;;;;;;22.05;24.78;98294.28;4994693;28;899;-80
2023/02/23 11:43:36;;;;;;;;;;;;;;;22.29;24.51;98286.44;5010727;28;1114;-81
2023/02/23 11:46:02;;;;;;;;;;;;;;;22.30;24.45;98285.19;4995198;28;915;-81
2023/02/23 11:48:30;;;;;;;;;;;;;;;22.02;25.06;98274.50;4994318;28;942;-81
2023/02/23 11:50:55;;;;;;;;;;;;;;;21.76;25.15;98287.66;4995184;28;2382;-82
2023/02/23 11:53:27;;;;;;;;;;;;;;;21.82;25.12;98286.72;4998406;28;1276;-83
2023/02/23 11:55:54;;;;;;;;;;;;;;;22.13;25.03;98291.31;5015192;28;1123;-82
2023/02/23 11:58:29;;;;;;;;;;;;;;;22.21;24.57;98290.69;4982498;28;1234;-82
2023/02/23 12:00:59;;;;;;;;;;;;;;;21.90;24.90;98289.38;4998570;28;1210;-83
2023/02/23 12:03:24;;;;;;;;;;;;;;;22.05;24.81;98288.59;4998200;28;715;-82
2023/02/23 12:05:52;;;;;;;;;;;;;;;21.96;24.85;98285.56;4998371;28;890;-82
2023/02/23 12:08:26;;;;;;;;;;;;;;;21.87;25.02;98282.56;5014721;28;1143;-82
2023/02/23 12:10:54;;;;;;;;;;;;;;;22.23;24.95;98293.88;5021157;28;1957;-82
2023/02/23 12:13:38;;;;;;;;;;;;;;;22.44;24.22;98291.75;5078788;28;787;-81
2023/02/23 12:16:05;;;;;;;;;;;;;;;22.01;25.07;98293.53;5080439;28;1042;-81
2023/02/23 12:18:43;;;;;;;;;;;;;;;21.88;25.51;98294.69;5078332;28;892;-81
2023/02/23 12:21:27;;;;;;;;;;;;;;;21.95;25.35;98294.53;5080030;28;842;-81
2023/02/23 12:24:19;;;;;;;;;;;;;;;22.23;24.83;98291.06;5078065;28;801;-81
2023/02/23 12:26:45;;;;;;;;;;;;;;;22.23;24.97;98293.88;5040634;28;979;-81
2023/02/23 12:29:21;;;;;;;;;;;;;;;22.05;25.15;98293.47;5056981;28;1152;-81
2023/02/23 12:31:54;;;;;;;;;;;;;;;21.89;25.10;98297.09;5040616;28;1875;-81
2023/02/23 12:34:31;;;;;;;;;;;;;;;21.77;25.52;98292.91;5040843;28;803;-81
2023/02/23 12:37:06;;;;;;;;;;;;;;;22.17;24.96;98306.97;5040239;28;907;-81
2023/02/23 12:39:32;;;;;;;;;;;;;;;22.25;24.89;98297.06;4997577;28;1028;-82
2023/02/23 12:42:00;;;;;;;;;;;;;;;22.28;24.68;98301.84;5014243;28;1019;-81
2023/02/23 12:44:34;;;;;;;;;;;;;;;21.80;25.15;98306.19;5013920;28;1041;-81
2023/02/23 12:47:07;;;;;;;;;;;;;;;21.73;25.24;98303.50;5014385;28;1175;-81
2023/02/23 12:49:36;;;;;;;;;;;;;;;21.76;25.25;98307.50;5013972;28;1005;-81
2023/02/23 12:52:07;;;;;;;;;;;;;;;22.04;25.30;98308.88;5014034;28;1910;-81
2023/02/23 12:54:33;;;;;;;;;;;;;;;22.14;24.79;98313.53;4997116;28;1118;-81
2023/02/23 12:57:18;;;;;;;;;;;;;;;22.04;25.19;98309.69;4998057;28;837;-81
2023/02/23 12:59:52;;;;;;;;;;;;;;;21.96;24.98;98313.09;4997442;28;893;-81
2023/02/23 13:02:20;;;;;;;;;;;;;;;21.79;25.24;98304.59;4981329;28;745;-81
2023/02/23 13:04:46;;;;;;;;;;;;;;;22.10;25.06;98310.78;5036953;28;800;-81
2023/02/23 13:07:17;;;;;;;;;;;;;;;22.23;24.58;98322.22;5036925;28;1261;-82
2023/02/23 13:09:46;;;;;;;;;;;;;;;22.08;25.13;98312.44;5029332;28;961;-81
2023/02/23 13:12:41;;;;;;;;;;;;;;;22.02;24.84;98311.34;5078867;28;1974;-81
2023/02/23 13:15:22;;;;;;;;;;;;;;;21.88;25.29;98315.31;5036248;28;932;-81
2023/02/23 13:18:00;;;;;;;;;;;;;;;21.89;25.28;98318.94;5036559;28;883;-81
2023/02/23 13:20:29;;;;;;;;;;;;;;;22.23;24.96;98310.88;5019771;28;994;-81
2023/02/23 13:23:09;;;;;;;;;;;;;;;22.26;24.62;98327.00;5036305;28;895;-81
2023/02/23 13:25:37;;;;;;;;;;;;;;;21.80;25.41;98311.84;5019753;28;932;-81
2023/02/23 13:28:02;;;;;;;;;;;;;;;22.04;25.01;98308.88;5019710;28;909;-81
2023/02/23 13:30:31;;;;;;;;;;;;;;;21.73;25.32;98328.22;5019818;28;999;-81
2023/02/23 13:32:57;;;;;;;;;;;;;;;21.99;25.30;98312.25;5019990;28;1981;-81
2023/02/23 13:35:23;;;;;;;;;;;;;;;22.29;24.56;98328.16;5020045;28;816;-81
2023/02/23 13:37:50;;;;;;;;;;;;;;;22.33;24.64;98315.50;5019603;28;930;-81
2023/02/23 13:40:21;;;;;;;;;;;;;;;21.85;25.16;98325.47;5019716;28;850;-81
2023/02/23 13:43:01;;;;;;;;;;;;;;;21.95;25.30;98328.53;5018511;28;1077;-81
2023/02/23 13:45:42;;;;;;;;;;;;;;;21.91;25.51;98333.47;5019201;28;883;-82
2023/02/23 13:48:26;;;;;;;;;;;;;;;22.20;24.74;98328.78;5034934;28;827;-82
2023/02/23 13:50:55;;;;;;;;;;;;;;;22.24;24.86;98338.00;5030989;28;2048;-82
2023/02/23 13:53:31;;;;;;;;;;;;;;;21.95;24.97;98332.16;5077789;28;869;-81
2023/02/23 13:56:00;;;;;;;;;;;;;;;21.97;25.05;98331.72;5078166;28;862;-82
2023/02/23 13:58:29;;;;;;;;;;;;;;;21.92;25.04;98340.75;5077383;28;841;-82
2023/02/23 14:01:04;;;;;;;;;;;;;;;22.25;24.73;98345.25;5059908;28;943;-81
2023/02/23 14:03:32;;;;;;;;;;;;;;;22.20;24.87;98345.78;5077330;28;838;-81
2023/02/23 14:05:58;;;;;;;;;;;;;;;22.29;24.94;98345.19;5078552;28;1016;-82
2023/02/23 14:08:30;;;;;;;;;;;;;;;21.99;25.04;98335.72;5076227;28;837;-81
2023/02/23 14:10:56;;;;;;;;;;;;;;;21.94;25.31;98343.94;5076633;28;1913;-81
2023/02/23 14:13:39;;;;;;;;;;;;;;;21.83;25.21;98344.97;5075988;28;1290;-81
2023/02/23 14:16:13;;;;;;;;;;;;;;;22.15;25.05;98354.81;5077482;28;797;-81
2023/02/23 14:18:54;;;;;;;;;;;;;;;22.23;24.92;98349.78;5077327;28;945;-82
2023/02/23 14:21:29;;;;;;;;;;;;;;;22.04;25.02;98354.22;5077887;28;787;-82
2023/02/23 14:24:16;;;;;;;;;;;;;;;21.84;25.14;98355.06;5076606;28;761;-82
2023/02/23 14:26:44;;;;;;;;;;;;;;;21.63;25.61;98358.34;5076160;28;847;-81
2023/02/23 14:29:19;;;;;;;;;;;;;;;22.24;24.89;98349.31;5077286;28;767;-82